sensor_id;sensor_type;location;lat;lon;timestamp;temperature;humidity
59007;DHT22;44792;52.760;6.726;2023-11-19T00:00:26;10.30;99.90
59007;DHT22;44792;52.760;6.726;2023-11-19T00:02:52;10.30;99.90
59007;DHT22;44792;52.760;6.726;2023-11-19T00:05:18;10.30;99.90
59007;DHT22;44792;52.760;6.726;2023-11-19T00:07:44;10.40;99.90
59007;DHT22;44792;52.760;6.726;2023-11-19T00:10:14;10.40;99.90
59007;DHT22;44792;52.760;6.726;2023-11-19T00:12:46;10.50;99.90
59007;DHT22;44792;52.760;6.726;2023-11-19T00:15:17;10.40;99.90
59007;DHT22;44792;52.760;6.726;2023-11-19T00:17:47;10.50;99.90
59007;DHT22;44792;52.760;6.726;2023-11-19T00:20:15;10.50;99.90
59007;DHT22;44792;52.760;6.726;2023-11-19T00:22:42;10.50;99.90
59007;DHT22;44792;52.760;6.726;2023-11-19T00:25:09;10.50;99.90
59007;DHT22;44792;52.760;6.726;2023-11-19T00:27:35;10.60;99.90
59007;DHT22;44792;52.760;6.726;2023-11-19T00:30:01;10.60;99.90
59007;DHT22;44792;52.760;6.726;2023-11-19T00:32:27;10.60;99.90
59007;DHT22;44792;52.760;6.726;2023-11-19T00:34:52;10.70;99.90
59007;DHT22;44792;52.760;6.726;2023-11-19T00:37:18;10.60;99.90
59007;DHT22;44792;52.760;6.726;2023-11-19T00:39:44;10.70;99.90
59007;DHT22;44792;52.760;6.726;2023-11-19T00:42:11;10.70;99.90
59007;DHT22;44792;52.760;6.726;2023-11-19T00:44:37;10.80;99.90
59007;DHT22;44792;52.760;6.726;2023-11-19T00:47:02;10.80;99.90
59007;DHT22;44792;52.760;6.726;2023-11-19T00:49:28;10.90;99.90
59007;DHT22;44792;52.760;6.726;2023-11-19T00:51:54;10.80;99.90
59007;DHT22;44792;52.760;6.726;2023-11-19T00:54:20;10.90;99.90
59007;DHT22;44792;52.760;6.726;2023-11-19T00:56:46;10.90;99.90
59007;DHT22;44792;52.760;6.726;2023-11-19T00:59:12;10.90;99.90
59007;DHT22;44792;52.760;6.726;2023-11-19T01:01:37;10.90;99.90
59007;DHT22;44792;52.760;6.726;2023-11-19T01:04:03;10.90;99.90
59007;DHT22;44792;52.760;6.726;2023-11-19T01:06:29;10.90;99.90
59007;DHT22;44792;52.760;6.726;2023-11-19T01:08:56;11.00;99.90
59007;DHT22;44792;52.760;6.726;2023-11-19T01:11:25;11.00;99.90
59007;DHT22;44792;52.760;6.726;2023-11-19T01:13:51;11.00;99.90
59007;DHT22;44792;52.760;6.726;2023-11-19T01:16:18;11.00;99.90
59007;DHT22;44792;52.760;6.726;2023-11-19T01:18:46;11.00;99.90
59007;DHT22;44792;52.760;6.726;2023-11-19T01:21:12;11.00;99.90
59007;DHT22;44792;52.760;6.726;2023-11-19T01:23:40;11.00;99.90
59007;DHT22;44792;52.760;6.726;2023-11-19T01:26:09;11.00;99.90
59007;DHT22;44792;52.760;6.726;2023-11-19T01:28:36;11.10;99.90
59007;DHT22;44792;52.760;6.726;2023-11-19T01:31:02;11.10;99.90
59007;DHT22;44792;52.760;6.726;2023-11-19T01:33:29;11.00;99.90
59007;DHT22;44792;52.760;6.726;2023-11-19T01:35:55;11.10;99.90
59007;DHT22;44792;52.760;6.726;2023-11-19T01:38:24;11.00;99.90
59007;DHT22;44792;52.760;6.726;2023-11-19T01:40:50;11.10;99.90
59007;DHT22;44792;52.760;6.726;2023-11-19T01:43:42;11.10;99.90
59007;DHT22;44792;52.760;6.726;2023-11-19T01:46:08;11.10;99.90
59007;DHT22;44792;52.760;6.726;2023-11-19T01:48:40;11.10;99.90
59007;DHT22;44792;52.760;6.726;2023-11-19T01:51:09;11.10;99.90
59007;DHT22;44792;52.760;6.726;2023-11-19T01:53:37;11.10;99.90
59007;DHT22;44792;52.760;6.726;2023-11-19T01:56:04;11.10;99.90
59007;DHT22;44792;52.760;6.726;2023-11-19T01:58:36;11.10;99.90
59007;DHT22;44792;52.760;6.726;2023-11-19T02:01:01;11.20;99.90
59007;DHT22;44792;52.760;6.726;2023-11-19T02:03:31;11.20;99.90
59007;DHT22;44792;52.760;6.726;2023-11-19T02:06:01;11.20;99.90
59007;DHT22;44792;52.760;6.726;2023-11-19T02:08:29;11.20;99.90
59007;DHT22;44792;52.760;6.726;2023-11-19T02:10:55;11.20;99.90
59007;DHT22;44792;52.760;6.726;2023-11-19T02:13:27;11.30;99.90
59007;DHT22;44792;52.760;6.726;2023-11-19T02:15:54;11.20;99.90
59007;DHT22;44792;52.760;6.726;2023-11-19T02:18:25;11.30;99.90
59007;DHT22;44792;52.760;6.726;2023-11-19T02:20:54;11.30;99.90
59007;DHT22;44792;52.760;6.726;2023-11-19T02:23:20;11.30;99.90
59007;DHT22;44792;52.760;6.726;2023-11-19T02:26:14;11.30;99.90
59007;DHT22;44792;52.760;6.726;2023-11-19T02:28:43;11.30;99.90
59007;DHT22;44792;52.760;6.726;2023-11-19T02:31:11;11.30;99.90
59007;DHT22;44792;52.760;6.726;2023-11-19T02:33:38;11.30;99.90
59007;DHT22;44792;52.760;6.726;2023-11-19T02:36:08;11.30;99.90
59007;DHT22;44792;52.760;6.726;2023-11-19T02:38:34;11.40;99.90
59007;DHT22;44792;52.760;6.726;2023-11-19T02:41:03;11.40;99.90
59007;DHT22;44792;52.760;6.726;2023-11-19T02:43:32;11.40;99.90
59007;DHT22;44792;52.760;6.726;2023-11-19T02:46:01;11.40;99.90
59007;DHT22;44792;52.760;6.726;2023-11-19T02:48:28;11.40;99.90
59007;DHT22;44792;52.760;6.726;2023-11-19T02:50:53;11.40;99.90
59007;DHT22;44792;52.760;6.726;2023-11-19T02:53:19;11.50;99.90
59007;DHT22;44792;52.760;6.726;2023-11-19T02:55:48;11.50;99.90
59007;DHT22;44792;52.760;6.726;2023-11-19T02:58:16;11.60;99.90
59007;DHT22;44792;52.760;6.726;2023-11-19T03:00:53;11.50;99.90
59007;DHT22;44792;52.760;6.726;2023-11-19T03:03:36;11.50;99.90
59007;DHT22;44792;52.760;6.726;2023-11-19T03:06:06;11.50;99.90
59007;DHT22;44792;52.760;6.726;2023-11-19T03:08:36;11.60;99.90
59007;DHT22;44792;52.760;6.726;2023-11-19T03:11:02;11.60;99.90
59007;DHT22;44792;52.760;6.726;2023-11-19T03:13:28;11.60;99.90
59007;DHT22;44792;52.760;6.726;2023-11-19T03:16:05;11.60;99.90
59007;DHT22;44792;52.760;6.726;2023-11-19T03:18:31;11.60;99.90
59007;DHT22;44792;52.760;6.726;2023-11-19T03:20:57;11.60;99.90
59007;DHT22;44792;52.760;6.726;2023-11-19T03:23:28;11.60;99.90
59007;DHT22;44792;52.760;6.726;2023-11-19T03:25:54;11.60;99.90
59007;DHT22;44792;52.760;6.726;2023-11-19T03:28:20;11.60;99.90
59007;DHT22;44792;52.760;6.726;2023-11-19T03:30:46;11.60;99.90
59007;DHT22;44792;52.760;6.726;2023-11-19T03:33:16;11.50;99.90
59007;DHT22;44792;52.760;6.726;2023-11-19T03:35:41;11.50;99.90
59007;DHT22;44792;52.760;6.726;2023-11-19T03:38:07;11.50;99.90
59007;DHT22;44792;52.760;6.726;2023-11-19T03:40:33;11.50;99.90
59007;DHT22;44792;52.760;6.726;2023-11-19T03:42:59;11.50;99.90
59007;DHT22;44792;52.760;6.726;2023-11-19T03:45:25;11.50;99.90
59007;DHT22;44792;52.760;6.726;2023-11-19T03:47:51;11.50;99.90
59007;DHT22;44792;52.760;6.726;2023-11-19T03:50:17;11.50;99.90
59007;DHT22;44792;52.760;6.726;2023-11-19T03:52:46;11.50;99.90
59007;DHT22;44792;52.760;6.726;2023-11-19T03:55:12;11.50;99.90
59007;DHT22;44792;52.760;6.726;2023-11-19T03:57:39;11.50;99.90
59007;DHT22;44792;52.760;6.726;2023-11-19T04:00:05;11.50;99.90
59007;DHT22;44792;52.760;6.726;2023-11-19T04:02:39;11.50;99.90
59007;DHT22;44792;52.760;6.726;2023-11-19T04:05:05;11.50;99.90
59007;DHT22;44792;52.760;6.726;2023-11-19T04:07:32;11.50;99.90
59007;DHT22;44792;52.760;6.726;2023-11-19T04:09:59;11.50;99.90
59007;DHT22;44792;52.760;6.726;2023-11-19T04:12:25;11.50;99.90
59007;DHT22;44792;52.760;6.726;2023-11-19T04:14:51;11.50;99.90
59007;DHT22;44792;52.760;6.726;2023-11-19T04:17:17;11.50;99.90
59007;DHT22;44792;52.760;6.726;2023-11-19T04:19:43;11.50;99.90
59007;DHT22;44792;52.760;6.726;2023-11-19T04:22:09;11.50;99.90
59007;DHT22;44792;52.760;6.726;2023-11-19T04:24:35;11.50;99.90
59007;DHT22;44792;52.760;6.726;2023-11-19T04:27:02;11.50;99.90
59007;DHT22;44792;52.760;6.726;2023-11-19T04:29:30;11.50;99.90
59007;DHT22;44792;52.760;6.726;2023-11-19T04:31:56;11.50;99.90
59007;DHT22;44792;52.760;6.726;2023-11-19T04:34:22;11.50;99.90
59007;DHT22;44792;52.760;6.726;2023-11-19T04:36:48;11.50;99.90
59007;DHT22;44792;52.760;6.726;2023-11-19T04:39:16;11.50;99.90
59007;DHT22;44792;52.760;6.726;2023-11-19T04:41:50;11.50;99.90
59007;DHT22;44792;52.760;6.726;2023-11-19T04:44:18;11.50;99.90
59007;DHT22;44792;52.760;6.726;2023-11-19T04:46:44;11.50;99.90
59007;DHT22;44792;52.760;6.726;2023-11-19T04:49:11;11.50;99.90
59007;DHT22;44792;52.760;6.726;2023-11-19T04:51:39;11.50;99.90
59007;DHT22;44792;52.760;6.726;2023-11-19T04:54:05;11.50;99.90
59007;DHT22;44792;52.760;6.726;2023-11-19T04:56:32;11.50;99.90
59007;DHT22;44792;52.760;6.726;2023-11-19T04:58:58;11.50;99.90
59007;DHT22;44792;52.760;6.726;2023-11-19T05:01:23;11.50;99.90
59007;DHT22;44792;52.760;6.726;2023-11-19T05:03:49;11.50;99.90
59007;DHT22;44792;52.760;6.726;2023-11-19T05:06:16;11.50;99.90
59007;DHT22;44792;52.760;6.726;2023-11-19T05:08:42;11.50;99.90
59007;DHT22;44792;52.760;6.726;2023-11-19T05:11:08;11.50;99.90
59007;DHT22;44792;52.760;6.726;2023-11-19T05:13:35;11.50;99.90
59007;DHT22;44792;52.760;6.726;2023-11-19T05:16:01;11.50;99.90
59007;DHT22;44792;52.760;6.726;2023-11-19T05:18:28;11.50;99.90
59007;DHT22;44792;52.760;6.726;2023-11-19T05:20:54;11.50;99.90
59007;DHT22;44792;52.760;6.726;2023-11-19T05:23:20;11.50;99.90
59007;DHT22;44792;52.760;6.726;2023-11-19T05:25:45;11.50;99.90
59007;DHT22;44792;52.760;6.726;2023-11-19T05:28:13;11.50;99.90
59007;DHT22;44792;52.760;6.726;2023-11-19T05:30:40;11.40;99.90
59007;DHT22;44792;52.760;6.726;2023-11-19T05:33:06;11.50;99.90
59007;DHT22;44792;52.760;6.726;2023-11-19T05:35:34;11.50;99.90
59007;DHT22;44792;52.760;6.726;2023-11-19T05:38:00;11.40;99.90
59007;DHT22;44792;52.760;6.726;2023-11-19T05:40:28;11.40;99.90
59007;DHT22;44792;52.760;6.726;2023-11-19T05:42:54;11.40;99.90
59007;DHT22;44792;52.760;6.726;2023-11-19T05:45:19;11.40;99.90
59007;DHT22;44792;52.760;6.726;2023-11-19T05:47:45;11.40;99.90
59007;DHT22;44792;52.760;6.726;2023-11-19T05:50:11;11.40;99.90
59007;DHT22;44792;52.760;6.726;2023-11-19T05:52:37;11.40;99.90
59007;DHT22;44792;52.760;6.726;2023-11-19T05:55:03;11.40;99.90
59007;DHT22;44792;52.760;6.726;2023-11-19T05:57:31;11.40;99.90
59007;DHT22;44792;52.760;6.726;2023-11-19T05:59:56;11.40;99.90
59007;DHT22;44792;52.760;6.726;2023-11-19T06:02:24;11.40;99.90
59007;DHT22;44792;52.760;6.726;2023-11-19T06:04:50;11.40;99.90
59007;DHT22;44792;52.760;6.726;2023-11-19T06:07:15;11.40;99.90
59007;DHT22;44792;52.760;6.726;2023-11-19T06:09:41;11.40;99.90
59007;DHT22;44792;52.760;6.726;2023-11-19T06:12:07;11.40;99.90
59007;DHT22;44792;52.760;6.726;2023-11-19T06:14:33;11.40;99.90
59007;DHT22;44792;52.760;6.726;2023-11-19T06:16:59;11.40;99.90
59007;DHT22;44792;52.760;6.726;2023-11-19T06:19:25;11.40;99.90
59007;DHT22;44792;52.760;6.726;2023-11-19T06:21:51;11.40;99.90
59007;DHT22;44792;52.760;6.726;2023-11-19T06:24:17;11.40;99.90
59007;DHT22;44792;52.760;6.726;2023-11-19T06:26:42;11.40;99.90
59007;DHT22;44792;52.760;6.726;2023-11-19T06:29:08;11.40;99.90
59007;DHT22;44792;52.760;6.726;2023-11-19T06:31:34;11.40;99.90
59007;DHT22;44792;52.760;6.726;2023-11-19T06:34:02;11.40;99.90
59007;DHT22;44792;52.760;6.726;2023-11-19T06:36:30;11.40;99.90
59007;DHT22;44792;52.760;6.726;2023-11-19T06:38:59;11.40;99.90
59007;DHT22;44792;52.760;6.726;2023-11-19T06:41:25;11.40;99.90
59007;DHT22;44792;52.760;6.726;2023-11-19T06:43:50;11.30;99.90
59007;DHT22;44792;52.760;6.726;2023-11-19T06:46:17;11.30;99.90
59007;DHT22;44792;52.760;6.726;2023-11-19T06:48:44;11.30;99.90
59007;DHT22;44792;52.760;6.726;2023-11-19T06:51:12;11.30;99.90
59007;DHT22;44792;52.760;6.726;2023-11-19T06:53:38;11.30;99.90
59007;DHT22;44792;52.760;6.726;2023-11-19T06:56:21;11.30;99.90
59007;DHT22;44792;52.760;6.726;2023-11-19T06:58:47;11.30;99.90
59007;DHT22;44792;52.760;6.726;2023-11-19T07:01:17;11.20;99.90
59007;DHT22;44792;52.760;6.726;2023-11-19T07:03:47;11.20;99.90
59007;DHT22;44792;52.760;6.726;2023-11-19T07:06:12;11.20;99.90
59007;DHT22;44792;52.760;6.726;2023-11-19T07:08:41;11.20;99.90
59007;DHT22;44792;52.760;6.726;2023-11-19T07:11:07;11.30;99.90
59007;DHT22;44792;52.760;6.726;2023-11-19T07:13:35;11.20;99.90
59007;DHT22;44792;52.760;6.726;2023-11-19T07:16:01;11.20;99.90
59007;DHT22;44792;52.760;6.726;2023-11-19T07:18:27;11.20;99.90
59007;DHT22;44792;52.760;6.726;2023-11-19T07:20:53;11.20;99.90
59007;DHT22;44792;52.760;6.726;2023-11-19T07:23:20;11.20;99.90
59007;DHT22;44792;52.760;6.726;2023-11-19T07:25:47;11.20;99.90
59007;DHT22;44792;52.760;6.726;2023-11-19T07:28:13;11.20;99.90
59007;DHT22;44792;52.760;6.726;2023-11-19T07:30:43;11.20;99.90
59007;DHT22;44792;52.760;6.726;2023-11-19T07:33:08;11.20;99.90
59007;DHT22;44792;52.760;6.726;2023-11-19T07:35:34;11.20;99.90
59007;DHT22;44792;52.760;6.726;2023-11-19T07:38:00;11.20;99.90
59007;DHT22;44792;52.760;6.726;2023-11-19T07:40:26;11.20;99.90
59007;DHT22;44792;52.760;6.726;2023-11-19T07:42:52;11.20;99.90
59007;DHT22;44792;52.760;6.726;2023-11-19T07:45:18;11.20;99.90
59007;DHT22;44792;52.760;6.726;2023-11-19T07:47:44;11.20;99.90
59007;DHT22;44792;52.760;6.726;2023-11-19T07:50:12;11.20;99.90
59007;DHT22;44792;52.760;6.726;2023-11-19T07:52:42;11.20;99.90
59007;DHT22;44792;52.760;6.726;2023-11-19T07:55:08;11.20;99.90
59007;DHT22;44792;52.760;6.726;2023-11-19T07:57:34;11.20;99.90
59007;DHT22;44792;52.760;6.726;2023-11-19T08:00:00;11.30;99.90
59007;DHT22;44792;52.760;6.726;2023-11-19T08:02:27;11.30;99.90
59007;DHT22;44792;52.760;6.726;2023-11-19T08:04:53;11.30;99.90
59007;DHT22;44792;52.760;6.726;2023-11-19T08:07:21;11.20;99.90
59007;DHT22;44792;52.760;6.726;2023-11-19T08:09:48;11.20;99.90
59007;DHT22;44792;52.760;6.726;2023-11-19T08:12:14;11.30;99.90
59007;DHT22;44792;52.760;6.726;2023-11-19T08:14:41;11.20;99.90
59007;DHT22;44792;52.760;6.726;2023-11-19T08:17:07;11.30;99.90
59007;DHT22;44792;52.760;6.726;2023-11-19T08:19:32;11.30;99.90
59007;DHT22;44792;52.760;6.726;2023-11-19T08:21:58;11.30;99.90
59007;DHT22;44792;52.760;6.726;2023-11-19T08:24:24;11.30;99.90
59007;DHT22;44792;52.760;6.726;2023-11-19T08:26:49;11.30;99.90
59007;DHT22;44792;52.760;6.726;2023-11-19T08:29:15;11.30;99.90
59007;DHT22;44792;52.760;6.726;2023-11-19T08:31:42;11.30;99.90
59007;DHT22;44792;52.760;6.726;2023-11-19T08:34:07;11.30;99.90
59007;DHT22;44792;52.760;6.726;2023-11-19T08:36:34;11.30;99.90
59007;DHT22;44792;52.760;6.726;2023-11-19T08:39:00;11.30;99.90
59007;DHT22;44792;52.760;6.726;2023-11-19T08:41:26;11.30;99.90
59007;DHT22;44792;52.760;6.726;2023-11-19T08:43:52;11.40;99.90
59007;DHT22;44792;52.760;6.726;2023-11-19T08:46:18;11.40;99.90
59007;DHT22;44792;52.760;6.726;2023-11-19T08:48:44;11.40;99.90
59007;DHT22;44792;52.760;6.726;2023-11-19T08:51:10;11.40;99.90
59007;DHT22;44792;52.760;6.726;2023-11-19T08:53:35;11.40;99.90
59007;DHT22;44792;52.760;6.726;2023-11-19T08:56:01;11.30;99.90
59007;DHT22;44792;52.760;6.726;2023-11-19T08:58:28;11.30;99.90
59007;DHT22;44792;52.760;6.726;2023-11-19T09:00:54;11.30;99.90
59007;DHT22;44792;52.760;6.726;2023-11-19T09:03:20;11.30;99.90
59007;DHT22;44792;52.760;6.726;2023-11-19T09:05:46;11.20;99.90
59007;DHT22;44792;52.760;6.726;2023-11-19T09:08:12;11.20;99.90
59007;DHT22;44792;52.760;6.726;2023-11-19T09:10:38;11.20;99.90
59007;DHT22;44792;52.760;6.726;2023-11-19T09:13:03;11.20;99.90
59007;DHT22;44792;52.760;6.726;2023-11-19T09:15:29;11.20;99.90
59007;DHT22;44792;52.760;6.726;2023-11-19T09:17:55;11.30;99.90
59007;DHT22;44792;52.760;6.726;2023-11-19T09:20:21;11.30;99.90
59007;DHT22;44792;52.760;6.726;2023-11-19T09:22:47;11.30;99.90
59007;DHT22;44792;52.760;6.726;2023-11-19T09:25:16;11.30;99.90
59007;DHT22;44792;52.760;6.726;2023-11-19T09:27:43;11.40;99.90
59007;DHT22;44792;52.760;6.726;2023-11-19T09:30:09;11.40;99.90
59007;DHT22;44792;52.760;6.726;2023-11-19T09:32:35;11.40;99.90
59007;DHT22;44792;52.760;6.726;2023-11-19T09:35:03;11.40;99.90
59007;DHT22;44792;52.760;6.726;2023-11-19T09:37:29;11.40;99.90
59007;DHT22;44792;52.760;6.726;2023-11-19T09:39:54;11.50;99.90
59007;DHT22;44792;52.760;6.726;2023-11-19T09:42:20;11.50;99.90
59007;DHT22;44792;52.760;6.726;2023-11-19T09:44:47;11.50;99.90
59007;DHT22;44792;52.760;6.726;2023-11-19T09:47:14;11.50;99.90
59007;DHT22;44792;52.760;6.726;2023-11-19T09:49:41;11.60;99.90
59007;DHT22;44792;52.760;6.726;2023-11-19T09:52:07;11.60;99.90
59007;DHT22;44792;52.760;6.726;2023-11-19T09:54:33;11.70;99.90
59007;DHT22;44792;52.760;6.726;2023-11-19T09:56:59;11.70;99.90
59007;DHT22;44792;52.760;6.726;2023-11-19T09:59:30;11.70;99.90
59007;DHT22;44792;52.760;6.726;2023-11-19T10:01:56;11.70;99.90
59007;DHT22;44792;52.760;6.726;2023-11-19T10:04:23;11.80;99.90
59007;DHT22;44792;52.760;6.726;2023-11-19T10:06:50;11.70;99.90
59007;DHT22;44792;52.760;6.726;2023-11-19T10:09:17;11.80;99.90
59007;DHT22;44792;52.760;6.726;2023-11-19T10:11:43;11.80;99.90
59007;DHT22;44792;52.760;6.726;2023-11-19T10:14:09;11.70;99.90
59007;DHT22;44792;52.760;6.726;2023-11-19T10:16:35;11.70;99.90
59007;DHT22;44792;52.760;6.726;2023-11-19T10:19:01;11.70;99.90
59007;DHT22;44792;52.760;6.726;2023-11-19T10:21:27;11.80;99.90
59007;DHT22;44792;52.760;6.726;2023-11-19T10:23:55;11.70;99.90
59007;DHT22;44792;52.760;6.726;2023-11-19T10:26:26;11.70;99.90
59007;DHT22;44792;52.760;6.726;2023-11-19T10:28:52;11.70;99.90
59007;DHT22;44792;52.760;6.726;2023-11-19T10:31:20;11.70;99.90
59007;DHT22;44792;52.760;6.726;2023-11-19T10:33:52;11.70;99.90
59007;DHT22;44792;52.760;6.726;2023-11-19T10:36:18;11.60;99.90
59007;DHT22;44792;52.760;6.726;2023-11-19T10:38:56;11.60;99.90
59007;DHT22;44792;52.760;6.726;2023-11-19T10:41:32;11.60;99.90
59007;DHT22;44792;52.760;6.726;2023-11-19T10:43:59;11.70;99.90
59007;DHT22;44792;52.760;6.726;2023-11-19T10:46:43;11.60;99.90
59007;DHT22;44792;52.760;6.726;2023-11-19T10:49:11;11.60;99.90
59007;DHT22;44792;52.760;6.726;2023-11-19T10:51:45;11.60;99.90
59007;DHT22;44792;52.760;6.726;2023-11-19T10:54:15;11.60;99.90
59007;DHT22;44792;52.760;6.726;2023-11-19T10:56:44;11.60;99.90
59007;DHT22;44792;52.760;6.726;2023-11-19T10:59:14;11.70;99.90
59007;DHT22;44792;52.760;6.726;2023-11-19T11:01:45;11.70;99.90
59007;DHT22;44792;52.760;6.726;2023-11-19T11:04:14;11.70;99.90
59007;DHT22;44792;52.760;6.726;2023-11-19T11:06:43;11.80;99.90
59007;DHT22;44792;52.760;6.726;2023-11-19T11:09:09;11.80;99.90
59007;DHT22;44792;52.760;6.726;2023-11-19T11:11:40;11.80;99.90
59007;DHT22;44792;52.760;6.726;2023-11-19T11:14:12;11.80;99.90
59007;DHT22;44792;52.760;6.726;2023-11-19T11:16:42;11.90;99.90
59007;DHT22;44792;52.760;6.726;2023-11-19T11:19:10;11.90;99.90
59007;DHT22;44792;52.760;6.726;2023-11-19T11:21:37;12.00;99.90
59007;DHT22;44792;52.760;6.726;2023-11-19T11:30:29;12.00;99.90
59007;DHT22;44792;52.760;6.726;2023-11-19T11:38:23;12.10;99.90
59007;DHT22;44792;52.760;6.726;2023-11-19T11:43:50;12.10;99.90
59007;DHT22;44792;52.760;6.726;2023-11-19T11:49:04;12.20;99.90
59007;DHT22;44792;52.760;6.726;2023-11-19T11:57:12;12.00;99.90
59007;DHT22;44792;52.760;6.726;2023-11-19T12:02:13;11.90;99.90
59007;DHT22;44792;52.760;6.726;2023-11-19T12:04:42;11.90;99.90
59007;DHT22;44792;52.760;6.726;2023-11-19T12:07:13;11.90;99.90
59007;DHT22;44792;52.760;6.726;2023-11-19T12:09:52;11.90;99.90
59007;DHT22;44792;52.760;6.726;2023-11-19T12:12:23;11.80;99.90
59007;DHT22;44792;52.760;6.726;2023-11-19T12:20:03;11.90;99.90
59007;DHT22;44792;52.760;6.726;2023-11-19T12:22:31;12.00;99.90
59007;DHT22;44792;52.760;6.726;2023-11-19T12:24:57;12.10;99.90
59007;DHT22;44792;52.760;6.726;2023-11-19T12:27:23;12.10;99.90
59007;DHT22;44792;52.760;6.726;2023-11-19T12:29:49;12.20;99.90
59007;DHT22;44792;52.760;6.726;2023-11-19T12:32:15;12.20;99.90
59007;DHT22;44792;52.760;6.726;2023-11-19T12:34:41;12.20;99.90
59007;DHT22;44792;52.760;6.726;2023-11-19T12:37:07;12.20;99.90
59007;DHT22;44792;52.760;6.726;2023-11-19T12:39:35;12.20;99.90
59007;DHT22;44792;52.760;6.726;2023-11-19T12:42:01;12.30;99.90
59007;DHT22;44792;52.760;6.726;2023-11-19T12:44:27;12.30;99.90
59007;DHT22;44792;52.760;6.726;2023-11-19T12:47:03;12.20;99.90
59007;DHT22;44792;52.760;6.726;2023-11-19T12:49:29;12.20;99.90
59007;DHT22;44792;52.760;6.726;2023-11-19T12:51:55;12.20;99.90
59007;DHT22;44792;52.760;6.726;2023-11-19T12:54:37;12.20;99.90
59007;DHT22;44792;52.760;6.726;2023-11-19T12:57:04;12.20;99.90
59007;DHT22;44792;52.760;6.726;2023-11-19T12:59:31;12.10;99.90
59007;DHT22;44792;52.760;6.726;2023-11-19T13:01:57;12.20;99.90
59007;DHT22;44792;52.760;6.726;2023-11-19T13:04:27;12.10;99.90
59007;DHT22;44792;52.760;6.726;2023-11-19T13:06:53;12.10;99.90
59007;DHT22;44792;52.760;6.726;2023-11-19T13:09:26;12.10;99.90
59007;DHT22;44792;52.760;6.726;2023-11-19T13:11:53;12.10;99.90
59007;DHT22;44792;52.760;6.726;2023-11-19T13:14:20;12.10;99.90
59007;DHT22;44792;52.760;6.726;2023-11-19T13:16:46;12.00;99.90
59007;DHT22;44792;52.760;6.726;2023-11-19T13:19:15;12.00;99.90
59007;DHT22;44792;52.760;6.726;2023-11-19T13:21:42;12.00;99.90
59007;DHT22;44792;52.760;6.726;2023-11-19T13:24:08;12.00;99.90
59007;DHT22;44792;52.760;6.726;2023-11-19T13:26:34;12.00;99.90
59007;DHT22;44792;52.760;6.726;2023-11-19T13:29:04;11.90;99.90
59007;DHT22;44792;52.760;6.726;2023-11-19T13:31:29;11.90;99.90
59007;DHT22;44792;52.760;6.726;2023-11-19T13:33:55;11.90;99.90
59007;DHT22;44792;52.760;6.726;2023-11-19T13:36:22;11.90;99.90
59007;DHT22;44792;52.760;6.726;2023-11-19T13:38:48;11.90;99.90
59007;DHT22;44792;52.760;6.726;2023-11-19T13:41:13;11.90;99.90
59007;DHT22;44792;52.760;6.726;2023-11-19T13:43:39;11.90;99.90
59007;DHT22;44792;52.760;6.726;2023-11-19T13:46:05;11.90;99.90
59007;DHT22;44792;52.760;6.726;2023-11-19T13:48:31;11.90;99.90
59007;DHT22;44792;52.760;6.726;2023-11-19T13:50:57;11.90;99.90
59007;DHT22;44792;52.760;6.726;2023-11-19T13:53:23;11.80;99.90
59007;DHT22;44792;52.760;6.726;2023-11-19T13:55:49;11.80;99.90
59007;DHT22;44792;52.760;6.726;2023-11-19T13:58:15;11.80;99.90
59007;DHT22;44792;52.760;6.726;2023-11-19T14:00:41;11.80;99.90
59007;DHT22;44792;52.760;6.726;2023-11-19T14:03:09;11.80;99.90
59007;DHT22;44792;52.760;6.726;2023-11-19T14:05:37;11.80;99.90
59007;DHT22;44792;52.760;6.726;2023-11-19T14:08:03;11.80;99.90
59007;DHT22;44792;52.760;6.726;2023-11-19T14:10:29;11.80;99.90
59007;DHT22;44792;52.760;6.726;2023-11-19T14:12:54;11.80;99.90
59007;DHT22;44792;52.760;6.726;2023-11-19T14:15:20;11.70;99.90
59007;DHT22;44792;52.760;6.726;2023-11-19T14:17:46;11.70;99.90
59007;DHT22;44792;52.760;6.726;2023-11-19T14:20:11;11.70;99.90
59007;DHT22;44792;52.760;6.726;2023-11-19T14:22:45;11.70;99.90
59007;DHT22;44792;52.760;6.726;2023-11-19T14:25:16;11.60;99.90
59007;DHT22;44792;52.760;6.726;2023-11-19T14:27:43;11.60;99.90
59007;DHT22;44792;52.760;6.726;2023-11-19T14:30:10;11.60;99.90
59007;DHT22;44792;52.760;6.726;2023-11-19T14:32:37;11.60;99.90
59007;DHT22;44792;52.760;6.726;2023-11-19T14:35:04;11.60;99.90
59007;DHT22;44792;52.760;6.726;2023-11-19T14:37:30;11.50;99.90
59007;DHT22;44792;52.760;6.726;2023-11-19T14:39:56;11.50;99.90
59007;DHT22;44792;52.760;6.726;2023-11-19T14:42:23;11.60;99.90
59007;DHT22;44792;52.760;6.726;2023-11-19T14:44:54;11.60;99.90
59007;DHT22;44792;52.760;6.726;2023-11-19T14:47:21;11.50;99.90
59007;DHT22;44792;52.760;6.726;2023-11-19T14:49:46;11.50;99.90
59007;DHT22;44792;52.760;6.726;2023-11-19T14:52:12;11.50;99.90
59007;DHT22;44792;52.760;6.726;2023-11-19T14:54:38;11.50;99.90
59007;DHT22;44792;52.760;6.726;2023-11-19T14:57:05;11.50;99.90
59007;DHT22;44792;52.760;6.726;2023-11-19T14:59:31;11.40;99.90
59007;DHT22;44792;52.760;6.726;2023-11-19T15:01:58;11.50;99.90
59007;DHT22;44792;52.760;6.726;2023-11-19T15:04:25;11.40;99.90
59007;DHT22;44792;52.760;6.726;2023-11-19T15:06:51;11.40;99.90
59007;DHT22;44792;52.760;6.726;2023-11-19T15:09:16;11.40;99.90
59007;DHT22;44792;52.760;6.726;2023-11-19T15:11:46;11.40;99.90
59007;DHT22;44792;52.760;6.726;2023-11-19T15:14:15;11.40;99.90
59007;DHT22;44792;52.760;6.726;2023-11-19T15:16:44;11.50;99.90
59007;DHT22;44792;52.760;6.726;2023-11-19T15:19:10;11.50;99.90
59007;DHT22;44792;52.760;6.726;2023-11-19T15:21:38;11.40;99.90
59007;DHT22;44792;52.760;6.726;2023-11-19T15:24:04;11.40;99.90
59007;DHT22;44792;52.760;6.726;2023-11-19T15:26:33;11.40;99.90
59007;DHT22;44792;52.760;6.726;2023-11-19T15:28:59;11.40;99.90
59007;DHT22;44792;52.760;6.726;2023-11-19T15:31:25;11.40;99.90
59007;DHT22;44792;52.760;6.726;2023-11-19T15:33:50;11.40;99.90
59007;DHT22;44792;52.760;6.726;2023-11-19T15:36:17;11.40;99.90
59007;DHT22;44792;52.760;6.726;2023-11-19T15:38:43;11.40;99.90
59007;DHT22;44792;52.760;6.726;2023-11-19T15:41:09;11.40;99.90
59007;DHT22;44792;52.760;6.726;2023-11-19T15:43:35;11.30;99.90
59007;DHT22;44792;52.760;6.726;2023-11-19T15:46:05;11.30;99.90
59007;DHT22;44792;52.760;6.726;2023-11-19T15:48:30;11.30;99.90
59007;DHT22;44792;52.760;6.726;2023-11-19T15:50:56;11.30;99.90
59007;DHT22;44792;52.760;6.726;2023-11-19T15:53:22;11.30;99.90
59007;DHT22;44792;52.760;6.726;2023-11-19T15:55:47;11.30;99.90
59007;DHT22;44792;52.760;6.726;2023-11-19T15:58:13;11.30;99.90
59007;DHT22;44792;52.760;6.726;2023-11-19T16:00:39;11.30;99.90